PWSweather.com
Personal Weather Stations
Station Observations
WILLOWTN37
St. LeonardsonseaGB TN377PA

St. LeonardsonseaGB TN377PA

Lat: 50.885, Lon: 0.55

Elevation: 300

Station Type: Davis Vantage Pro 2

http://willowsweather.blogspot.com/

Latest ConditionsUpdated 6:10:01 AM GMT Thursday, Oct 18, 2018
Currently Today's Max Today's Min Today's Average
Temperature 52.5°F11.4°C 56.7°F13.7°C 52.5°F11.4°C 54.2°F12.3°C
Dew Point -41.6°F-40.9°C -41.6°F-40.9°C -41.6°F-40.9°C -41.6°F-40.9°C
Winds 2.0 mph NNE3.2 kmh NNE 2.0 mph -3.2 kmh - - 1.0 mph 1.6 kmh
Wind Gusts 8.0 mph12.9 kmh 9.0 mph14.5 kmh - -
Humidity 0% 0% 0% 0%
Pressure 30.26 in1024.7 mb 30.26 in1024.7 mb 30.22 in1023.4 mb -
Hour Temp Dew Point Humidity Winds Wind Gusts Pressure Precip Precip Rate Daily Precip Total
06:10 AM 52.5°F11.4°C -41.6°F-40.9°C 0% 2.0 mph NNE3.2 kmh NNE 8.0 mph12.9 kmh 30.26 in1024.7 mb 0.00 in0.0 mm 0.00 in0.0 mm 0.00 in0.0 mm
06:05 AM 52.5°F11.4°C -41.6°F-40.9°C 0% 2.0 mph N3.2 kmh N 7.0 mph11.3 kmh 30.25 in1024.4 mb 0.00 in0.0 mm 0.00 in0.0 mm 0.00 in0.0 mm
06:00 AM 52.5°F11.4°C -41.6°F-40.9°C 0% 2.0 mph N3.2 kmh N 7.0 mph11.3 kmh 30.25 in1024.4 mb 0.00 in0.0 mm 0.00 in0.0 mm 0.00 in0.0 mm
05:55 AM 52.7°F11.5°C -41.6°F-40.9°C 0% 1.0 mph N1.6 kmh N 5.0 mph8.0 kmh 30.25 in1024.4 mb 0.00 in0.0 mm 0.00 in0.0 mm 0.00 in0.0 mm
05:50 AM 52.7°F11.5°C -41.6°F-40.9°C 0% 1.0 mph N1.6 kmh N 6.0 mph9.7 kmh 30.25 in1024.4 mb 0.00 in0.0 mm 0.00 in0.0 mm 0.00 in0.0 mm
05:45 AM 52.7°F11.5°C -41.6°F-40.9°C 0% 1.0 mph N1.6 kmh N 6.0 mph9.7 kmh 30.25 in1024.4 mb 0.00 in0.0 mm 0.00 in0.0 mm 0.00 in0.0 mm
05:40 AM 52.7°F11.5°C -41.6°F-40.9°C 0% 1.0 mph NNE1.6 kmh NNE 6.0 mph9.7 kmh 30.25 in1024.4 mb 0.00 in0.0 mm 0.00 in0.0 mm 0.00 in0.0 mm
05:35 AM 52.7°F11.5°C -41.6°F-40.9°C 0% 1.0 mph NNE1.6 kmh NNE 3.0 mph4.8 kmh 30.25 in1024.4 mb 0.00 in0.0 mm 0.00 in0.0 mm 0.00 in0.0 mm
05:30 AM 52.9°F11.6°C -41.6°F-40.9°C 0% 1.0 mph NNE1.6 kmh NNE 4.0 mph6.4 kmh 30.24 in1024.0 mb 0.00 in0.0 mm 0.00 in0.0 mm 0.00 in0.0 mm
05:25 AM 52.9°F11.6°C -41.6°F-40.9°C 0% 1.0 mph N1.6 kmh N 4.0 mph6.4 kmh 30.24 in1024.0 mb 0.00 in0.0 mm 0.00 in0.0 mm 0.00 in0.0 mm
05:20 AM 52.9°F11.6°C -41.6°F-40.9°C 0% 1.0 mph N1.6 kmh N 6.0 mph9.7 kmh 30.24 in1024.0 mb 0.00 in0.0 mm 0.00 in0.0 mm 0.00 in0.0 mm
05:15 AM 52.9°F11.6°C -41.6°F-40.9°C 0% 1.0 mph N1.6 kmh N 6.0 mph9.7 kmh 30.24 in1024.0 mb 0.00 in0.0 mm 0.00 in0.0 mm 0.00 in0.0 mm
05:10 AM 52.9°F11.6°C -41.6°F-40.9°C 0% 1.0 mph N1.6 kmh N 5.0 mph8.0 kmh 30.24 in1024.0 mb 0.00 in0.0 mm 0.00 in0.0 mm 0.00 in0.0 mm
05:05 AM 52.9°F11.6°C -41.6°F-40.9°C 0% 1.0 mph N1.6 kmh N 5.0 mph8.0 kmh 30.24 in1024.0 mb 0.00 in0.0 mm 0.00 in0.0 mm 0.00 in0.0 mm
05:00 AM 52.9°F11.6°C -41.6°F-40.9°C 0% 1.0 mph NNW1.6 kmh NNW 5.0 mph8.0 kmh 30.24 in1024.0 mb 0.00 in0.0 mm 0.00 in0.0 mm 0.00 in0.0 mm
04:55 AM 52.9°F11.6°C -41.6°F-40.9°C 0% 1.0 mph N1.6 kmh N 6.0 mph9.7 kmh 30.24 in1024.0 mb 0.00 in0.0 mm 0.00 in0.0 mm 0.00 in0.0 mm
04:50 AM 52.9°F11.6°C -41.6°F-40.9°C 0% 1.0 mph NNE1.6 kmh NNE 6.0 mph9.7 kmh 30.24 in1024.0 mb 0.00 in0.0 mm 0.00 in0.0 mm 0.00 in0.0 mm
04:45 AM 52.9°F11.6°C -41.6°F-40.9°C 0% 2.0 mph NNE3.2 kmh NNE 6.0 mph9.7 kmh 30.24 in1024.0 mb 0.00 in0.0 mm 0.00 in0.0 mm 0.00 in0.0 mm
04:40 AM 52.9°F11.6°C -41.6°F-40.9°C 0% 1.0 mph N1.6 kmh N 6.0 mph9.7 kmh 30.24 in1024.0 mb 0.00 in0.0 mm 0.00 in0.0 mm 0.00 in0.0 mm
04:35 AM 52.9°F11.6°C -41.6°F-40.9°C 0% 1.0 mph N1.6 kmh N 4.0 mph6.4 kmh 30.24 in1024.0 mb 0.00 in0.0 mm 0.00 in0.0 mm 0.00 in0.0 mm
04:30 AM 52.9°F11.6°C -41.6°F-40.9°C 0% 1.0 mph N1.6 kmh N 7.0 mph11.3 kmh 30.24 in1024.0 mb 0.00 in0.0 mm 0.00 in0.0 mm 0.00 in0.0 mm
04:25 AM 52.9°F11.6°C -41.6°F-40.9°C 0% 1.0 mph NNE1.6 kmh NNE 7.0 mph11.3 kmh 30.24 in1024.0 mb 0.00 in0.0 mm 0.00 in0.0 mm 0.00 in0.0 mm
04:20 AM 52.9°F11.6°C -41.6°F-40.9°C 0% 1.0 mph NNE1.6 kmh NNE 9.0 mph14.5 kmh 30.24 in1024.0 mb 0.00 in0.0 mm 0.00 in0.0 mm 0.00 in0.0 mm
04:15 AM 52.9°F11.6°C -41.6°F-40.9°C 0% 1.0 mph NNE1.6 kmh NNE 9.0 mph14.5 kmh 30.24 in1024.0 mb 0.00 in0.0 mm 0.00 in0.0 mm 0.00 in0.0 mm
04:10 AM 52.9°F11.6°C -41.6°F-40.9°C 0% 1.0 mph NNE1.6 kmh NNE 6.0 mph9.7 kmh 30.24 in1024.0 mb 0.00 in0.0 mm 0.00 in0.0 mm 0.00 in0.0 mm
04:05 AM 52.9°F11.6°C -41.6°F-40.9°C 0% 1.0 mph N1.6 kmh N 6.0 mph9.7 kmh 30.24 in1024.0 mb 0.00 in0.0 mm 0.00 in0.0 mm 0.00 in0.0 mm
04:00 AM 52.9°F11.6°C -41.6°F-40.9°C 0% 1.0 mph N1.6 kmh N 7.0 mph11.3 kmh 30.24 in1024.0 mb 0.00 in0.0 mm 0.00 in0.0 mm 0.00 in0.0 mm
03:55 AM 52.9°F11.6°C -41.6°F-40.9°C 0% 1.0 mph N1.6 kmh N 7.0 mph11.3 kmh 30.24 in1024.0 mb 0.00 in0.0 mm 0.00 in0.0 mm 0.00 in0.0 mm
03:50 AM 52.9°F11.6°C -41.6°F-40.9°C 0% Calm Calm 4.0 mph6.4 kmh 30.24 in1024.0 mb 0.00 in0.0 mm 0.00 in0.0 mm 0.00 in0.0 mm
03:45 AM 53.1°F11.7°C -41.6°F-40.9°C 0% 1.0 mph N1.6 kmh N 4.0 mph6.4 kmh 30.24 in1024.0 mb 0.00 in0.0 mm 0.00 in0.0 mm 0.00 in0.0 mm
03:40 AM 53.1°F11.7°C -41.6°F-40.9°C 0% 1.0 mph N1.6 kmh N 4.0 mph6.4 kmh 30.24 in1024.0 mb 0.00 in0.0 mm 0.00 in0.0 mm 0.00 in0.0 mm
03:35 AM 53.1°F11.7°C -41.6°F-40.9°C 0% 1.0 mph N1.6 kmh N 6.0 mph9.7 kmh 30.24 in1024.0 mb 0.00 in0.0 mm 0.00 in0.0 mm 0.00 in0.0 mm
03:30 AM 53.2°F11.8°C -41.6°F-40.9°C 0% 1.0 mph N1.6 kmh N 6.0 mph9.7 kmh 30.24 in1024.0 mb 0.00 in0.0 mm 0.00 in0.0 mm 0.00 in0.0 mm
03:25 AM 53.4°F11.9°C -41.6°F-40.9°C 0% 1.0 mph N1.6 kmh N 6.0 mph9.7 kmh 30.24 in1024.0 mb 0.00 in0.0 mm 0.00 in0.0 mm 0.00 in0.0 mm
03:20 AM 53.4°F11.9°C -41.6°F-40.9°C 0% 2.0 mph N3.2 kmh N 6.0 mph9.7 kmh 30.24 in1024.0 mb 0.00 in0.0 mm 0.00 in0.0 mm 0.00 in0.0 mm
03:15 AM 53.8°F12.1°C -41.6°F-40.9°C 0% 1.0 mph N1.6 kmh N 7.0 mph11.3 kmh 30.24 in1024.0 mb 0.00 in0.0 mm 0.00 in0.0 mm 0.00 in0.0 mm
03:10 AM 53.8°F12.1°C -41.6°F-40.9°C 0% 1.0 mph N1.6 kmh N 7.0 mph11.3 kmh 30.23 in1023.7 mb 0.00 in0.0 mm 0.00 in0.0 mm 0.00 in0.0 mm
03:05 AM 54.0°F12.2°C -41.6°F-40.9°C 0% 1.0 mph NNE1.6 kmh NNE 5.0 mph8.0 kmh 30.23 in1023.7 mb 0.00 in0.0 mm 0.00 in0.0 mm 0.00 in0.0 mm
03:00 AM 54.0°F12.2°C -41.6°F-40.9°C 0% Calm Calm 5.0 mph8.0 kmh 30.23 in1023.7 mb 0.00 in0.0 mm 0.00 in0.0 mm 0.00 in0.0 mm
02:55 AM 54.1°F12.3°C -41.6°F-40.9°C 0% Calm Calm 3.0 mph4.8 kmh 30.23 in1023.7 mb 0.00 in0.0 mm 0.00 in0.0 mm 0.00 in0.0 mm
02:50 AM 54.3°F12.4°C -41.6°F-40.9°C 0% 1.0 mph N1.6 kmh N 3.0 mph4.8 kmh 30.23 in1023.7 mb 0.00 in0.0 mm 0.00 in0.0 mm 0.00 in0.0 mm
02:45 AM 54.3°F12.4°C -41.6°F-40.9°C 0% 1.0 mph N1.6 kmh N 4.0 mph6.4 kmh 30.23 in1023.7 mb 0.00 in0.0 mm 0.00 in0.0 mm 0.00 in0.0 mm
02:40 AM 54.3°F12.4°C -41.6°F-40.9°C 0% 1.0 mph N1.6 kmh N 6.0 mph9.7 kmh 30.23 in1023.7 mb 0.00 in0.0 mm 0.00 in0.0 mm 0.00 in0.0 mm
02:35 AM 54.5°F12.5°C -41.6°F-40.9°C 0% 1.0 mph NNE1.6 kmh NNE 6.0 mph9.7 kmh 30.23 in1023.7 mb 0.00 in0.0 mm 0.00 in0.0 mm 0.00 in0.0 mm
02:30 AM 54.7°F12.6°C -41.6°F-40.9°C 0% 1.0 mph NE1.6 kmh NE 4.0 mph6.4 kmh 30.23 in1023.7 mb 0.00 in0.0 mm 0.00 in0.0 mm 0.00 in0.0 mm
02:25 AM 54.7°F12.6°C -41.6°F-40.9°C 0% 1.0 mph NE1.6 kmh NE 4.0 mph6.4 kmh 30.23 in1023.7 mb 0.00 in0.0 mm 0.00 in0.0 mm 0.00 in0.0 mm
02:20 AM 54.7°F12.6°C -41.6°F-40.9°C 0% 1.0 mph NNE1.6 kmh NNE 9.0 mph14.5 kmh 30.23 in1023.7 mb 0.00 in0.0 mm 0.00 in0.0 mm 0.00 in0.0 mm
02:15 AM 54.9°F12.7°C -41.6°F-40.9°C 0% 2.0 mph N3.2 kmh N 9.0 mph14.5 kmh 30.23 in1023.7 mb 0.00 in0.0 mm 0.00 in0.0 mm 0.00 in0.0 mm
02:10 AM 54.9°F12.7°C -41.6°F-40.9°C 0% 1.0 mph N1.6 kmh N 6.0 mph9.7 kmh 30.23 in1023.7 mb 0.00 in0.0 mm 0.00 in0.0 mm 0.00 in0.0 mm
02:05 AM 54.9°F12.7°C -41.6°F-40.9°C 0% 1.0 mph N1.6 kmh N 6.0 mph9.7 kmh 30.23 in1023.7 mb 0.00 in0.0 mm 0.00 in0.0 mm 0.00 in0.0 mm
02:00 AM 55.0°F12.8°C -41.6°F-40.9°C 0% 1.0 mph NNE1.6 kmh NNE 5.0 mph8.0 kmh 30.23 in1023.7 mb 0.00 in0.0 mm 0.00 in0.0 mm 0.00 in0.0 mm
01:55 AM 55.0°F12.8°C -41.6°F-40.9°C 0% 1.0 mph NNE1.6 kmh NNE 3.0 mph4.8 kmh 30.23 in1023.7 mb 0.00 in0.0 mm 0.00 in0.0 mm 0.00 in0.0 mm
01:50 AM 55.0°F12.8°C -41.6°F-40.9°C 0% Calm Calm 3.0 mph4.8 kmh 30.23 in1023.7 mb 0.00 in0.0 mm 0.00 in0.0 mm 0.00 in0.0 mm
01:45 AM 55.2°F12.9°C -41.6°F-40.9°C 0% Calm Calm 3.0 mph4.8 kmh 30.23 in1023.7 mb 0.00 in0.0 mm 0.00 in0.0 mm 0.00 in0.0 mm
01:40 AM 55.4°F13.0°C -41.6°F-40.9°C 0% 1.0 mph N1.6 kmh N 6.0 mph9.7 kmh 30.23 in1023.7 mb 0.00 in0.0 mm 0.00 in0.0 mm 0.00 in0.0 mm
01:35 AM 55.6°F13.1°C -41.6°F-40.9°C 0% 1.0 mph N1.6 kmh N 6.0 mph9.7 kmh 30.23 in1023.7 mb 0.00 in0.0 mm 0.00 in0.0 mm 0.00 in0.0 mm
01:30 AM 55.6°F13.1°C -41.6°F-40.9°C 0% 1.0 mph N1.6 kmh N 4.0 mph6.4 kmh 30.23 in1023.7 mb 0.00 in0.0 mm 0.00 in0.0 mm 0.00 in0.0 mm
01:25 AM 55.6°F13.1°C -41.6°F-40.9°C 0% 1.0 mph NNE1.6 kmh NNE 4.0 mph6.4 kmh 30.23 in1023.7 mb 0.00 in0.0 mm 0.00 in0.0 mm 0.00 in0.0 mm
01:20 AM 55.8°F13.2°C -41.6°F-40.9°C 0% Calm Calm 3.0 mph4.8 kmh 30.23 in1023.7 mb 0.00 in0.0 mm 0.00 in0.0 mm 0.00 in0.0 mm
01:15 AM 55.8°F13.2°C -41.6°F-40.9°C 0% 1.0 mph N1.6 kmh N 6.0 mph9.7 kmh 30.23 in1023.7 mb 0.00 in0.0 mm 0.00 in0.0 mm 0.00 in0.0 mm
01:10 AM 55.8°F13.2°C -41.6°F-40.9°C 0% 1.0 mph N1.6 kmh N 6.0 mph9.7 kmh 30.23 in1023.7 mb 0.00 in0.0 mm 0.00 in0.0 mm 0.00 in0.0 mm
01:05 AM 55.9°F13.3°C -41.6°F-40.9°C 0% 1.0 mph NNW1.6 kmh NNW 4.0 mph6.4 kmh 30.23 in1023.7 mb 0.00 in0.0 mm 0.00 in0.0 mm 0.00 in0.0 mm
01:00 AM 55.9°F13.3°C -41.6°F-40.9°C 0% 1.0 mph N1.6 kmh N 4.0 mph6.4 kmh 30.23 in1023.7 mb 0.00 in0.0 mm 0.00 in0.0 mm 0.00 in0.0 mm
12:55 AM 55.9°F13.3°C -41.6°F-40.9°C 0% 1.0 mph N1.6 kmh N 4.0 mph6.4 kmh 30.23 in1023.7 mb 0.00 in0.0 mm 0.00 in0.0 mm 0.00 in0.0 mm
12:50 AM 55.9°F13.3°C -41.6°F-40.9°C 0% 1.0 mph N1.6 kmh N 4.0 mph6.4 kmh 30.23 in1023.7 mb 0.00 in0.0 mm 0.00 in0.0 mm 0.00 in0.0 mm
12:45 AM 55.9°F13.3°C -41.6°F-40.9°C 0% Calm Calm 3.0 mph4.8 kmh 30.23 in1023.7 mb 0.00 in0.0 mm 0.00 in0.0 mm 0.00 in0.0 mm
12:40 AM 55.9°F13.3°C -41.6°F-40.9°C 0% Calm Calm 2.0 mph3.2 kmh 30.23 in1023.7 mb 0.00 in0.0 mm 0.00 in0.0 mm 0.00 in0.0 mm
12:35 AM 56.1°F13.4°C -41.6°F-40.9°C 0% Calm Calm 7.0 mph11.3 kmh 30.23 in1023.7 mb 0.00 in0.0 mm 0.00 in0.0 mm 0.00 in0.0 mm
12:30 AM 56.1°F13.4°C -41.6°F-40.9°C 0% 1.0 mph N1.6 kmh N 7.0 mph11.3 kmh 30.23 in1023.7 mb 0.00 in0.0 mm 0.00 in0.0 mm 0.00 in0.0 mm
12:25 AM 56.1°F13.4°C -41.6°F-40.9°C 0% 1.0 mph NNE1.6 kmh NNE 8.0 mph12.9 kmh 30.22 in1023.4 mb 0.00 in0.0 mm 0.00 in0.0 mm 0.00 in0.0 mm
12:20 AM 56.3°F13.5°C -41.6°F-40.9°C 0% 2.0 mph N3.2 kmh N 8.0 mph12.9 kmh 30.23 in1023.7 mb 0.00 in0.0 mm 0.00 in0.0 mm 0.00 in0.0 mm
12:15 AM 56.5°F13.6°C -41.6°F-40.9°C 0% 1.0 mph N1.6 kmh N 6.0 mph9.7 kmh 30.22 in1023.4 mb 0.00 in0.0 mm 0.00 in0.0 mm 0.00 in0.0 mm
12:10 AM 56.5°F13.6°C -41.6°F-40.9°C 0% 1.0 mph N1.6 kmh N 6.0 mph9.7 kmh 30.23 in1023.7 mb 0.00 in0.0 mm 0.00 in0.0 mm 0.00 in0.0 mm
12:05 AM 56.7°F13.7°C -41.6°F-40.9°C 0% 1.0 mph NW1.6 kmh NW 5.0 mph8.0 kmh 30.23 in1023.7 mb 0.00 in0.0 mm 0.00 in0.0 mm 0.00 in0.0 mm
12:00 AM 56.7°F13.7°C -41.6°F-40.9°C 0% Calm Calm 5.0 mph8.0 kmh 30.23 in1023.7 mb 0.00 in0.0 mm 0.00 in0.0 mm 0.00 in0.0 mm